sensor_id;sensor_type;location;lat;lon;timestamp;temperature;humidity
20911;DHT22;10615;42.702;23.314;2022-11-20T00:00:53;15.50;95.90
20911;DHT22;10615;42.702;23.314;2022-11-20T00:01:54;15.50;95.90
20911;DHT22;10615;42.702;23.314;2022-11-20T00:02:54;15.50;95.90
20911;DHT22;10615;42.702;23.314;2022-11-20T00:03:56;15.60;95.80
20911;DHT22;10615;42.702;23.314;2022-11-20T00:04:58;15.60;95.70
20911;DHT22;10615;42.702;23.314;2022-11-20T00:06:06;15.60;95.80
20911;DHT22;10615;42.702;23.314;2022-11-20T00:07:07;15.60;95.80
20911;DHT22;10615;42.702;23.314;2022-11-20T00:08:08;15.60;95.90
20911;DHT22;10615;42.702;23.314;2022-11-20T00:09:10;15.60;95.80
20911;DHT22;10615;42.702;23.314;2022-11-20T00:10:10;15.60;95.80
20911;DHT22;10615;42.702;23.314;2022-11-20T00:11:22;15.60;95.70
20911;DHT22;10615;42.702;23.314;2022-11-20T00:12:23;15.60;95.60
20911;DHT22;10615;42.702;23.314;2022-11-20T00:13:24;15.70;95.40
20911;DHT22;10615;42.702;23.314;2022-11-20T00:14:25;15.80;94.70
20911;DHT22;10615;42.702;23.314;2022-11-20T00:15:25;15.80;94.10
20911;DHT22;10615;42.702;23.314;2022-11-20T00:16:28;15.90;93.80
20911;DHT22;10615;42.702;23.314;2022-11-20T00:17:30;15.90;93.70
20911;DHT22;10615;42.702;23.314;2022-11-20T00:18:30;16.00;92.90
20911;DHT22;10615;42.702;23.314;2022-11-20T00:19:32;16.10;92.60
20911;DHT22;10615;42.702;23.314;2022-11-20T00:20:33;16.10;92.30
20911;DHT22;10615;42.702;23.314;2022-11-20T00:21:33;16.20;91.90
20911;DHT22;10615;42.702;23.314;2022-11-20T00:22:34;16.30;91.50
20911;DHT22;10615;42.702;23.314;2022-11-20T00:23:35;16.30;91.20
20911;DHT22;10615;42.702;23.314;2022-11-20T00:24:35;16.30;91.10
20911;DHT22;10615;42.702;23.314;2022-11-20T00:25:36;16.30;91.00
20911;DHT22;10615;42.702;23.314;2022-11-20T00:26:36;16.40;91.00
20911;DHT22;10615;42.702;23.314;2022-11-20T00:27:37;16.40;91.00
20911;DHT22;10615;42.702;23.314;2022-11-20T00:28:38;16.40;90.90
20911;DHT22;10615;42.702;23.314;2022-11-20T00:29:39;16.40;90.80
20911;DHT22;10615;42.702;23.314;2022-11-20T00:30:39;16.40;90.60
20911;DHT22;10615;42.702;23.314;2022-11-20T00:31:40;16.50;90.50
20911;DHT22;10615;42.702;23.314;2022-11-20T00:32:41;16.40;90.20
20911;DHT22;10615;42.702;23.314;2022-11-20T00:33:42;16.60;90.00
20911;DHT22;10615;42.702;23.314;2022-11-20T00:34:43;16.60;89.40
20911;DHT22;10615;42.702;23.314;2022-11-20T00:35:43;16.60;89.00
20911;DHT22;10615;42.702;23.314;2022-11-20T00:36:44;16.70;88.20
20911;DHT22;10615;42.702;23.314;2022-11-20T00:37:45;16.90;86.60
20911;DHT22;10615;42.702;23.314;2022-11-20T00:38:46;17.00;85.00
20911;DHT22;10615;42.702;23.314;2022-11-20T00:39:46;17.10;83.60
20911;DHT22;10615;42.702;23.314;2022-11-20T00:40:55;17.20;82.60
20911;DHT22;10615;42.702;23.314;2022-11-20T00:41:56;17.30;82.00
20911;DHT22;10615;42.702;23.314;2022-11-20T00:42:56;17.40;81.10
20911;DHT22;10615;42.702;23.314;2022-11-20T00:43:57;17.50;80.50
20911;DHT22;10615;42.702;23.314;2022-11-20T00:44:58;17.50;80.10
20911;DHT22;10615;42.702;23.314;2022-11-20T00:46:03;17.50;80.00
20911;DHT22;10615;42.702;23.314;2022-11-20T00:47:04;17.50;79.60
20911;DHT22;10615;42.702;23.314;2022-11-20T00:48:05;17.60;79.50
20911;DHT22;10615;42.702;23.314;2022-11-20T00:49:05;17.60;79.20
20911;DHT22;10615;42.702;23.314;2022-11-20T00:50:06;17.60;79.10
20911;DHT22;10615;42.702;23.314;2022-11-20T00:51:07;17.60;79.10
20911;DHT22;10615;42.702;23.314;2022-11-20T00:52:08;17.60;78.90
20911;DHT22;10615;42.702;23.314;2022-11-20T00:53:09;17.60;78.70
20911;DHT22;10615;42.702;23.314;2022-11-20T00:54:10;17.70;78.60
20911;DHT22;10615;42.702;23.314;2022-11-20T00:55:11;17.80;78.00
20911;DHT22;10615;42.702;23.314;2022-11-20T00:56:14;17.80;77.40
20911;DHT22;10615;42.702;23.314;2022-11-20T00:57:15;17.90;76.90
20911;DHT22;10615;42.702;23.314;2022-11-20T00:58:15;17.90;76.50
20911;DHT22;10615;42.702;23.314;2022-11-20T00:59:16;18.00;76.10
20911;DHT22;10615;42.702;23.314;2022-11-20T01:00:16;18.10;75.60
20911;DHT22;10615;42.702;23.314;2022-11-20T01:01:24;18.10;75.10
20911;DHT22;10615;42.702;23.314;2022-11-20T01:02:25;18.10;74.90
20911;DHT22;10615;42.702;23.314;2022-11-20T01:03:26;18.10;74.70
20911;DHT22;10615;42.702;23.314;2022-11-20T01:04:26;18.10;74.70
20911;DHT22;10615;42.702;23.314;2022-11-20T01:05:27;18.10;74.70
20911;DHT22;10615;42.702;23.314;2022-11-20T01:06:35;18.10;74.70
20911;DHT22;10615;42.702;23.314;2022-11-20T01:07:36;18.10;74.70
20911;DHT22;10615;42.702;23.314;2022-11-20T01:08:37;18.10;74.80
20911;DHT22;10615;42.702;23.314;2022-11-20T01:09:38;18.20;74.90
20911;DHT22;10615;42.702;23.314;2022-11-20T01:10:39;18.20;74.90
20911;DHT22;10615;42.702;23.314;2022-11-20T01:11:42;18.10;74.80
20911;DHT22;10615;42.702;23.314;2022-11-20T01:12:43;18.20;74.70
20911;DHT22;10615;42.702;23.314;2022-11-20T01:13:45;18.20;74.50
20911;DHT22;10615;42.702;23.314;2022-11-20T01:14:47;18.20;74.30
20911;DHT22;10615;42.702;23.314;2022-11-20T01:15:47;18.20;74.30
20911;DHT22;10615;42.702;23.314;2022-11-20T01:16:50;18.20;74.10
20911;DHT22;10615;42.702;23.314;2022-11-20T01:17:51;18.30;73.70
20911;DHT22;10615;42.702;23.314;2022-11-20T01:18:53;18.40;73.30
20911;DHT22;10615;42.702;23.314;2022-11-20T01:19:54;18.40;73.10
20911;DHT22;10615;42.702;23.314;2022-11-20T01:20:55;18.40;72.90
20911;DHT22;10615;42.702;23.314;2022-11-20T01:21:56;18.40;72.80
20911;DHT22;10615;42.702;23.314;2022-11-20T01:22:56;18.40;72.70
20911;DHT22;10615;42.702;23.314;2022-11-20T01:23:57;18.40;72.50
20911;DHT22;10615;42.702;23.314;2022-11-20T01:24:58;18.40;72.10
20911;DHT22;10615;42.702;23.314;2022-11-20T01:26:00;18.50;71.80
20911;DHT22;10615;42.702;23.314;2022-11-20T01:27:01;18.50;71.80
20911;DHT22;10615;42.702;23.314;2022-11-20T01:28:02;18.60;71.60
20911;DHT22;10615;42.702;23.314;2022-11-20T01:29:03;18.60;71.60
20911;DHT22;10615;42.702;23.314;2022-11-20T01:30:05;18.50;71.50
20911;DHT22;10615;42.702;23.314;2022-11-20T01:31:18;18.50;71.40
20911;DHT22;10615;42.702;23.314;2022-11-20T01:32:19;18.50;71.50
20911;DHT22;10615;42.702;23.314;2022-11-20T01:33:20;18.40;71.70
20911;DHT22;10615;42.702;23.314;2022-11-20T01:34:21;18.40;71.90
20911;DHT22;10615;42.702;23.314;2022-11-20T01:35:22;18.40;71.70
20911;DHT22;10615;42.702;23.314;2022-11-20T01:36:25;18.40;71.70
20911;DHT22;10615;42.702;23.314;2022-11-20T01:37:26;18.40;71.70
20911;DHT22;10615;42.702;23.314;2022-11-20T01:38:27;18.40;71.90
20911;DHT22;10615;42.702;23.314;2022-11-20T01:39:27;18.40;71.90
20911;DHT22;10615;42.702;23.314;2022-11-20T01:40:28;18.40;71.60
20911;DHT22;10615;42.702;23.314;2022-11-20T01:41:30;18.40;71.30
20911;DHT22;10615;42.702;23.314;2022-11-20T01:42:57;18.40;71.10
20911;DHT22;10615;42.702;23.314;2022-11-20T01:44:39;18.40;71.10
20911;DHT22;10615;42.702;23.314;2022-11-20T01:47:07;18.40;71.10
20911;DHT22;10615;42.702;23.314;2022-11-20T01:48:11;18.40;71.10
20911;DHT22;10615;42.702;23.314;2022-11-20T01:49:20;18.40;70.90
20911;DHT22;10615;42.702;23.314;2022-11-20T01:50:23;18.40;70.60
20911;DHT22;10615;42.702;23.314;2022-11-20T01:51:29;18.50;70.50
20911;DHT22;10615;42.702;23.314;2022-11-20T01:53:54;18.50;70.40
20911;DHT22;10615;42.702;23.314;2022-11-20T01:55:05;18.40;70.60
20911;DHT22;10615;42.702;23.314;2022-11-20T01:56:10;18.40;70.50
20911;DHT22;10615;42.702;23.314;2022-11-20T01:57:12;18.50;70.40
20911;DHT22;10615;42.702;23.314;2022-11-20T01:58:14;18.50;70.20
20911;DHT22;10615;42.702;23.314;2022-11-20T01:59:17;18.40;70.00
20911;DHT22;10615;42.702;23.314;2022-11-20T02:00:19;18.50;69.90
20911;DHT22;10615;42.702;23.314;2022-11-20T02:01:21;18.50;69.80
20911;DHT22;10615;42.702;23.314;2022-11-20T02:02:22;18.50;69.90
20911;DHT22;10615;42.702;23.314;2022-11-20T02:03:23;18.50;69.80
20911;DHT22;10615;42.702;23.314;2022-11-20T02:04:24;18.50;69.80
20911;DHT22;10615;42.702;23.314;2022-11-20T02:05:32;18.50;69.80
20911;DHT22;10615;42.702;23.314;2022-11-20T02:06:44;18.50;69.90
20911;DHT22;10615;42.702;23.314;2022-11-20T02:07:46;18.50;69.90
20911;DHT22;10615;42.702;23.314;2022-11-20T02:08:47;18.40;69.90
20911;DHT22;10615;42.702;23.314;2022-11-20T02:09:48;18.50;69.80
20911;DHT22;10615;42.702;23.314;2022-11-20T02:10:48;18.50;69.80
20911;DHT22;10615;42.702;23.314;2022-11-20T02:11:49;18.50;69.90
20911;DHT22;10615;42.702;23.314;2022-11-20T02:12:50;18.50;70.10
20911;DHT22;10615;42.702;23.314;2022-11-20T02:14:10;18.40;70.20
20911;DHT22;10615;42.702;23.314;2022-11-20T02:15:11;18.40;70.40
20911;DHT22;10615;42.702;23.314;2022-11-20T02:17:17;18.40;70.50
20911;DHT22;10615;42.702;23.314;2022-11-20T02:18:19;18.40;70.20
20911;DHT22;10615;42.702;23.314;2022-11-20T02:19:28;18.40;69.50
20911;DHT22;10615;42.702;23.314;2022-11-20T02:20:30;18.50;68.70
20911;DHT22;10615;42.702;23.314;2022-11-20T02:22:59;18.60;68.70
20911;DHT22;10615;42.702;23.314;2022-11-20T02:24:09;18.60;68.90
20911;DHT22;10615;42.702;23.314;2022-11-20T02:25:10;18.60;69.20
20911;DHT22;10615;42.702;23.314;2022-11-20T02:26:12;18.60;69.30
20911;DHT22;10615;42.702;23.314;2022-11-20T02:27:16;18.50;69.50
20911;DHT22;10615;42.702;23.314;2022-11-20T02:28:18;18.50;69.60
20911;DHT22;10615;42.702;23.314;2022-11-20T02:29:36;18.50;69.60
20911;DHT22;10615;42.702;23.314;2022-11-20T02:30:38;18.50;69.60
20911;DHT22;10615;42.702;23.314;2022-11-20T02:31:41;18.60;69.30
20911;DHT22;10615;42.702;23.314;2022-11-20T02:32:43;18.50;68.90
20911;DHT22;10615;42.702;23.314;2022-11-20T02:33:43;18.50;68.70
20911;DHT22;10615;42.702;23.314;2022-11-20T02:34:44;18.50;68.80
20911;DHT22;10615;42.702;23.314;2022-11-20T02:35:46;18.50;69.10
20911;DHT22;10615;42.702;23.314;2022-11-20T02:36:49;18.50;69.40
20911;DHT22;10615;42.702;23.314;2022-11-20T02:37:54;18.50;69.60
20911;DHT22;10615;42.702;23.314;2022-11-20T02:38:55;18.50;69.80
20911;DHT22;10615;42.702;23.314;2022-11-20T02:39:56;18.50;69.80
20911;DHT22;10615;42.702;23.314;2022-11-20T02:40:57;18.40;69.80
20911;DHT22;10615;42.702;23.314;2022-11-20T02:41:57;18.40;69.70
20911;DHT22;10615;42.702;23.314;2022-11-20T02:42:58;18.50;69.50
20911;DHT22;10615;42.702;23.314;2022-11-20T02:43:58;18.50;69.20
20911;DHT22;10615;42.702;23.314;2022-11-20T02:44:59;18.60;69.10
20911;DHT22;10615;42.702;23.314;2022-11-20T02:46:00;18.60;69.20
20911;DHT22;10615;42.702;23.314;2022-11-20T02:47:00;18.60;69.30
20911;DHT22;10615;42.702;23.314;2022-11-20T02:48:01;18.60;69.40
20911;DHT22;10615;42.702;23.314;2022-11-20T02:49:03;18.50;69.60
20911;DHT22;10615;42.702;23.314;2022-11-20T02:50:04;18.50;69.80
20911;DHT22;10615;42.702;23.314;2022-11-20T02:51:05;18.50;70.10
20911;DHT22;10615;42.702;23.314;2022-11-20T02:52:06;18.50;70.10
20911;DHT22;10615;42.702;23.314;2022-11-20T02:53:06;18.50;70.20
20911;DHT22;10615;42.702;23.314;2022-11-20T02:54:07;18.40;70.30
20911;DHT22;10615;42.702;23.314;2022-11-20T02:55:08;18.40;70.50
20911;DHT22;10615;42.702;23.314;2022-11-20T02:56:08;18.40;70.50
20911;DHT22;10615;42.702;23.314;2022-11-20T02:57:09;18.40;70.80
20911;DHT22;10615;42.702;23.314;2022-11-20T02:58:10;18.40;70.90
20911;DHT22;10615;42.702;23.314;2022-11-20T02:59:10;18.40;71.10
20911;DHT22;10615;42.702;23.314;2022-11-20T03:00:12;18.40;71.20
20911;DHT22;10615;42.702;23.314;2022-11-20T03:01:12;18.40;71.40
20911;DHT22;10615;42.702;23.314;2022-11-20T03:02:13;18.40;71.40
20911;DHT22;10615;42.702;23.314;2022-11-20T03:03:14;18.40;71.60
20911;DHT22;10615;42.702;23.314;2022-11-20T03:04:14;18.40;71.70
20911;DHT22;10615;42.702;23.314;2022-11-20T03:05:15;18.30;71.70
20911;DHT22;10615;42.702;23.314;2022-11-20T03:06:16;18.30;71.90
20911;DHT22;10615;42.702;23.314;2022-11-20T03:07:17;18.30;72.00
20911;DHT22;10615;42.702;23.314;2022-11-20T03:08:18;18.30;72.10
20911;DHT22;10615;42.702;23.314;2022-11-20T03:09:18;18.30;72.10
20911;DHT22;10615;42.702;23.314;2022-11-20T03:10:19;18.30;72.30
20911;DHT22;10615;42.702;23.314;2022-11-20T03:11:20;18.30;72.40
20911;DHT22;10615;42.702;23.314;2022-11-20T03:12:20;18.30;72.60
20911;DHT22;10615;42.702;23.314;2022-11-20T03:13:21;18.30;72.60
20911;DHT22;10615;42.702;23.314;2022-11-20T03:14:22;18.30;72.80
20911;DHT22;10615;42.702;23.314;2022-11-20T03:15:23;18.30;72.80
20911;DHT22;10615;42.702;23.314;2022-11-20T03:16:24;18.20;72.80
20911;DHT22;10615;42.702;23.314;2022-11-20T03:17:24;18.30;73.10
20911;DHT22;10615;42.702;23.314;2022-11-20T03:18:28;18.30;73.20
20911;DHT22;10615;42.702;23.314;2022-11-20T03:19:29;18.20;73.40
20911;DHT22;10615;42.702;23.314;2022-11-20T03:20:30;18.20;73.40
20911;DHT22;10615;42.702;23.314;2022-11-20T03:21:32;18.20;73.40
20911;DHT22;10615;42.702;23.314;2022-11-20T03:22:33;18.20;73.40
20911;DHT22;10615;42.702;23.314;2022-11-20T03:23:34;18.20;73.60
20911;DHT22;10615;42.702;23.314;2022-11-20T03:24:35;18.20;73.70
20911;DHT22;10615;42.702;23.314;2022-11-20T03:25:35;18.20;73.80
20911;DHT22;10615;42.702;23.314;2022-11-20T03:26:36;18.20;74.00
20911;DHT22;10615;42.702;23.314;2022-11-20T03:27:37;18.10;74.20
20911;DHT22;10615;42.702;23.314;2022-11-20T03:28:38;18.10;75.20
20911;DHT22;10615;42.702;23.314;2022-11-20T03:29:38;18.10;74.30
20911;DHT22;10615;42.702;23.314;2022-11-20T03:30:39;18.10;74.20
20911;DHT22;10615;42.702;23.314;2022-11-20T03:31:40;18.10;74.20
20911;DHT22;10615;42.702;23.314;2022-11-20T03:32:41;18.10;75.10
20911;DHT22;10615;42.702;23.314;2022-11-20T03:33:42;18.10;74.30
20911;DHT22;10615;42.702;23.314;2022-11-20T03:34:43;18.10;74.30
20911;DHT22;10615;42.702;23.314;2022-11-20T03:35:44;18.10;74.40
20911;DHT22;10615;42.702;23.314;2022-11-20T03:36:44;18.10;74.50
20911;DHT22;10615;42.702;23.314;2022-11-20T03:37:45;18.10;74.60
20911;DHT22;10615;42.702;23.314;2022-11-20T03:38:47;18.10;74.70
20911;DHT22;10615;42.702;23.314;2022-11-20T03:39:47;18.10;74.70
20911;DHT22;10615;42.702;23.314;2022-11-20T03:40:48;18.10;74.70
20911;DHT22;10615;42.702;23.314;2022-11-20T03:41:49;18.10;74.70
20911;DHT22;10615;42.702;23.314;2022-11-20T03:42:50;18.10;74.90
20911;DHT22;10615;42.702;23.314;2022-11-20T03:43:58;18.00;74.90
20911;DHT22;10615;42.702;23.314;2022-11-20T03:44:59;18.00;75.00
20911;DHT22;10615;42.702;23.314;2022-11-20T03:46:00;18.00;75.10
20911;DHT22;10615;42.702;23.314;2022-11-20T03:47:01;18.00;75.10
20911;DHT22;10615;42.702;23.314;2022-11-20T03:48:01;18.00;75.10
20911;DHT22;10615;42.702;23.314;2022-11-20T03:49:02;18.00;74.80
20911;DHT22;10615;42.702;23.314;2022-11-20T03:50:03;18.00;74.60
20911;DHT22;10615;42.702;23.314;2022-11-20T03:52:12;18.10;74.00
20911;DHT22;10615;42.702;23.314;2022-11-20T03:53:16;18.10;73.80
20911;DHT22;10615;42.702;23.314;2022-11-20T03:54:17;18.10;73.60
20911;DHT22;10615;42.702;23.314;2022-11-20T03:55:17;18.20;73.50
20911;DHT22;10615;42.702;23.314;2022-11-20T03:56:21;18.20;73.50
20911;DHT22;10615;42.702;23.314;2022-11-20T03:57:22;18.20;73.40
20911;DHT22;10615;42.702;23.314;2022-11-20T03:58:23;18.20;73.40
20911;DHT22;10615;42.702;23.314;2022-11-20T03:59:24;18.20;73.60
20911;DHT22;10615;42.702;23.314;2022-11-20T04:00:24;18.20;73.70
20911;DHT22;10615;42.702;23.314;2022-11-20T04:01:27;18.20;73.80
20911;DHT22;10615;42.702;23.314;2022-11-20T04:02:28;18.10;74.00
20911;DHT22;10615;42.702;23.314;2022-11-20T04:03:29;18.10;74.30
20911;DHT22;10615;42.702;23.314;2022-11-20T04:04:29;18.00;74.60
20911;DHT22;10615;42.702;23.314;2022-11-20T04:05:30;18.00;74.80
20911;DHT22;10615;42.702;23.314;2022-11-20T04:06:37;18.00;75.00
20911;DHT22;10615;42.702;23.314;2022-11-20T04:07:38;17.90;75.10
20911;DHT22;10615;42.702;23.314;2022-11-20T04:08:39;17.90;75.30
20911;DHT22;10615;42.702;23.314;2022-11-20T04:09:40;17.90;75.50
20911;DHT22;10615;42.702;23.314;2022-11-20T04:10:41;17.90;75.70
20911;DHT22;10615;42.702;23.314;2022-11-20T04:11:41;17.80;76.70
20911;DHT22;10615;42.702;23.314;2022-11-20T04:12:42;17.80;75.90
20911;DHT22;10615;42.702;23.314;2022-11-20T04:13:47;17.80;76.00
20911;DHT22;10615;42.702;23.314;2022-11-20T04:14:47;17.80;76.00
20911;DHT22;10615;42.702;23.314;2022-11-20T04:15:48;17.80;76.00
20911;DHT22;10615;42.702;23.314;2022-11-20T04:16:49;17.80;75.80
20911;DHT22;10615;42.702;23.314;2022-11-20T04:17:49;17.80;75.60
20911;DHT22;10615;42.702;23.314;2022-11-20T04:18:55;17.80;75.50
20911;DHT22;10615;42.702;23.314;2022-11-20T04:19:56;17.80;75.40
20911;DHT22;10615;42.702;23.314;2022-11-20T04:20:57;17.90;75.40
20911;DHT22;10615;42.702;23.314;2022-11-20T04:21:58;17.90;75.30
20911;DHT22;10615;42.702;23.314;2022-11-20T04:22:59;17.90;75.30
20911;DHT22;10615;42.702;23.314;2022-11-20T04:23:59;17.90;75.30
20911;DHT22;10615;42.702;23.314;2022-11-20T04:25:00;17.90;75.50
20911;DHT22;10615;42.702;23.314;2022-11-20T04:26:12;17.90;75.60
20911;DHT22;10615;42.702;23.314;2022-11-20T04:27:12;17.80;75.80
20911;DHT22;10615;42.702;23.314;2022-11-20T04:28:13;17.80;75.70
20911;DHT22;10615;42.702;23.314;2022-11-20T04:29:15;17.90;75.60
20911;DHT22;10615;42.702;23.314;2022-11-20T04:30:15;17.90;75.40
20911;DHT22;10615;42.702;23.314;2022-11-20T04:31:21;17.90;75.00
20911;DHT22;10615;42.702;23.314;2022-11-20T04:32:22;17.90;75.10
20911;DHT22;10615;42.702;23.314;2022-11-20T04:33:23;18.00;74.20
20911;DHT22;10615;42.702;23.314;2022-11-20T04:34:23;18.00;74.10
20911;DHT22;10615;42.702;23.314;2022-11-20T04:35:24;17.90;73.90
20911;DHT22;10615;42.702;23.314;2022-11-20T04:36:26;18.00;73.90
20911;DHT22;10615;42.702;23.314;2022-11-20T04:37:27;18.00;74.00
20911;DHT22;10615;42.702;23.314;2022-11-20T04:38:28;18.00;74.10
20911;DHT22;10615;42.702;23.314;2022-11-20T04:39:29;18.00;74.20
20911;DHT22;10615;42.702;23.314;2022-11-20T04:40:30;17.90;74.20
20911;DHT22;10615;42.702;23.314;2022-11-20T04:41:35;17.90;74.40
20911;DHT22;10615;42.702;23.314;2022-11-20T04:42:36;17.90;74.50
20911;DHT22;10615;42.702;23.314;2022-11-20T04:43:37;17.90;74.60
20911;DHT22;10615;42.702;23.314;2022-11-20T04:44:37;17.90;74.70
20911;DHT22;10615;42.702;23.314;2022-11-20T04:45:38;17.90;74.80
20911;DHT22;10615;42.702;23.314;2022-11-20T04:46:41;17.90;74.80
20911;DHT22;10615;42.702;23.314;2022-11-20T04:47:42;17.80;74.60
20911;DHT22;10615;42.702;23.314;2022-11-20T04:48:43;17.90;74.50
20911;DHT22;10615;42.702;23.314;2022-11-20T04:49:44;17.80;74.60
20911;DHT22;10615;42.702;23.314;2022-11-20T04:50:44;17.80;74.50
20911;DHT22;10615;42.702;23.314;2022-11-20T04:51:45;17.90;74.40
20911;DHT22;10615;42.702;23.314;2022-11-20T04:52:45;17.90;74.40
20911;DHT22;10615;42.702;23.314;2022-11-20T04:53:46;17.80;74.60
20911;DHT22;10615;42.702;23.314;2022-11-20T04:54:47;17.80;74.60
20911;DHT22;10615;42.702;23.314;2022-11-20T04:55:47;17.80;74.80
20911;DHT22;10615;42.702;23.314;2022-11-20T04:56:48;17.80;74.80
20911;DHT22;10615;42.702;23.314;2022-11-20T04:57:52;17.80;74.70
20911;DHT22;10615;42.702;23.314;2022-11-20T04:58:53;17.80;74.90
20911;DHT22;10615;42.702;23.314;2022-11-20T04:59:53;17.80;74.60
20911;DHT22;10615;42.702;23.314;2022-11-20T05:01:14;17.80;74.60
20911;DHT22;10615;42.702;23.314;2022-11-20T05:02:14;17.80;74.60
20911;DHT22;10615;42.702;23.314;2022-11-20T05:03:15;17.80;74.50
20911;DHT22;10615;42.702;23.314;2022-11-20T05:04:16;17.80;74.50
20911;DHT22;10615;42.702;23.314;2022-11-20T05:05:16;17.80;74.50
20911;DHT22;10615;42.702;23.314;2022-11-20T05:06:19;17.80;74.60
20911;DHT22;10615;42.702;23.314;2022-11-20T05:07:20;17.80;74.60
20911;DHT22;10615;42.702;23.314;2022-11-20T05:08:21;17.80;74.70
20911;DHT22;10615;42.702;23.314;2022-11-20T05:09:21;17.80;75.10
20911;DHT22;10615;42.702;23.314;2022-11-20T05:10:22;17.80;75.20
20911;DHT22;10615;42.702;23.314;2022-11-20T05:11:23;17.70;74.90
20911;DHT22;10615;42.702;23.314;2022-11-20T05:12:24;17.80;74.80
20911;DHT22;10615;42.702;23.314;2022-11-20T05:13:24;17.80;74.70
20911;DHT22;10615;42.702;23.314;2022-11-20T05:14:25;17.80;74.60
20911;DHT22;10615;42.702;23.314;2022-11-20T05:15:26;17.80;74.50
20911;DHT22;10615;42.702;23.314;2022-11-20T05:16:26;17.80;74.40
20911;DHT22;10615;42.702;23.314;2022-11-20T05:17:27;17.80;74.00
20911;DHT22;10615;42.702;23.314;2022-11-20T05:18:28;17.80;73.70
20911;DHT22;10615;42.702;23.314;2022-11-20T05:19:28;17.90;73.60
20911;DHT22;10615;42.702;23.314;2022-11-20T05:20:29;17.90;73.60
20911;DHT22;10615;42.702;23.314;2022-11-20T05:21:32;17.90;73.50
20911;DHT22;10615;42.702;23.314;2022-11-20T05:22:33;17.90;73.50
20911;DHT22;10615;42.702;23.314;2022-11-20T05:23:34;17.90;73.40
20911;DHT22;10615;42.702;23.314;2022-11-20T05:24:35;17.90;73.30
20911;DHT22;10615;42.702;23.314;2022-11-20T05:25:35;17.90;73.30
20911;DHT22;10615;42.702;23.314;2022-11-20T05:26:36;17.90;73.20
20911;DHT22;10615;42.702;23.314;2022-11-20T05:27:37;17.90;73.20
20911;DHT22;10615;42.702;23.314;2022-11-20T05:28:38;17.90;73.10
20911;DHT22;10615;42.702;23.314;2022-11-20T05:29:38;18.00;73.10
20911;DHT22;10615;42.702;23.314;2022-11-20T05:30:39;18.00;73.20
20911;DHT22;10615;42.702;23.314;2022-11-20T05:31:40;17.90;73.10
20911;DHT22;10615;42.702;23.314;2022-11-20T05:32:41;17.90;73.10
20911;DHT22;10615;42.702;23.314;2022-11-20T05:33:43;17.90;73.20
20911;DHT22;10615;42.702;23.314;2022-11-20T05:34:44;17.90;73.20
20911;DHT22;10615;42.702;23.314;2022-11-20T05:35:45;17.90;73.20
20911;DHT22;10615;42.702;23.314;2022-11-20T05:36:46;18.00;73.20
20911;DHT22;10615;42.702;23.314;2022-11-20T05:37:46;18.00;73.20
20911;DHT22;10615;42.702;23.314;2022-11-20T05:38:47;17.90;73.20
20911;DHT22;10615;42.702;23.314;2022-11-20T05:39:48;17.90;73.20
20911;DHT22;10615;42.702;23.314;2022-11-20T05:40:49;17.90;73.30
20911;DHT22;10615;42.702;23.314;2022-11-20T05:41:49;17.90;73.30
20911;DHT22;10615;42.702;23.314;2022-11-20T05:43:10;17.90;73.60
20911;DHT22;10615;42.702;23.314;2022-11-20T05:44:11;17.90;73.60
20911;DHT22;10615;42.702;23.314;2022-11-20T05:45:12;17.90;73.70
20911;DHT22;10615;42.702;23.314;2022-11-20T05:46:15;17.80;74.00
20911;DHT22;10615;42.702;23.314;2022-11-20T05:47:15;17.80;74.40
20911;DHT22;10615;42.702;23.314;2022-11-20T05:48:16;17.80;74.90
20911;DHT22;10615;42.702;23.314;2022-11-20T05:49:16;17.80;75.20
20911;DHT22;10615;42.702;23.314;2022-11-20T05:50:17;17.70;75.70
20911;DHT22;10615;42.702;23.314;2022-11-20T05:51:19;17.70;76.20
20911;DHT22;10615;42.702;23.314;2022-11-20T05:52:20;17.70;76.90
20911;DHT22;10615;42.702;23.314;2022-11-20T05:53:20;17.60;77.50
20911;DHT22;10615;42.702;23.314;2022-11-20T05:54:21;17.50;78.20
20911;DHT22;10615;42.702;23.314;2022-11-20T05:55:22;17.40;78.60
20911;DHT22;10615;42.702;23.314;2022-11-20T05:56:22;17.40;79.10
20911;DHT22;10615;42.702;23.314;2022-11-20T05:57:23;17.40;79.50
20911;DHT22;10615;42.702;23.314;2022-11-20T05:58:24;17.30;79.80
20911;DHT22;10615;42.702;23.314;2022-11-20T05:59:25;17.30;80.20
20911;DHT22;10615;42.702;23.314;2022-11-20T06:00:25;17.30;80.50
20911;DHT22;10615;42.702;23.314;2022-11-20T06:01:26;17.30;80.70
20911;DHT22;10615;42.702;23.314;2022-11-20T06:02:27;17.30;80.80
20911;DHT22;10615;42.702;23.314;2022-11-20T06:03:27;17.20;81.00
20911;DHT22;10615;42.702;23.314;2022-11-20T06:04:28;17.20;81.20
20911;DHT22;10615;42.702;23.314;2022-11-20T06:05:29;17.20;81.20
20911;DHT22;10615;42.702;23.314;2022-11-20T06:06:29;17.20;81.30
20911;DHT22;10615;42.702;23.314;2022-11-20T06:07:30;17.20;81.30
20911;DHT22;10615;42.702;23.314;2022-11-20T06:08:31;17.20;81.30
20911;DHT22;10615;42.702;23.314;2022-11-20T06:09:34;17.20;81.30
20911;DHT22;10615;42.702;23.314;2022-11-20T06:10:34;17.20;81.30
20911;DHT22;10615;42.702;23.314;2022-11-20T06:11:35;17.20;81.30
20911;DHT22;10615;42.702;23.314;2022-11-20T06:12:35;17.20;81.30
20911;DHT22;10615;42.702;23.314;2022-11-20T06:13:37;17.20;81.30
20911;DHT22;10615;42.702;23.314;2022-11-20T06:14:37;17.20;81.20
20911;DHT22;10615;42.702;23.314;2022-11-20T06:15:38;17.20;81.10
20911;DHT22;10615;42.702;23.314;2022-11-20T06:16:39;17.20;81.10
20911;DHT22;10615;42.702;23.314;2022-11-20T06:17:39;17.30;81.20
20911;DHT22;10615;42.702;23.314;2022-11-20T06:18:40;17.30;80.90
20911;DHT22;10615;42.702;23.314;2022-11-20T06:19:41;17.30;80.80
20911;DHT22;10615;42.702;23.314;2022-11-20T06:20:41;17.30;80.80
20911;DHT22;10615;42.702;23.314;2022-11-20T06:21:42;17.30;80.60
20911;DHT22;10615;42.702;23.314;2022-11-20T06:22:43;17.30;80.50
20911;DHT22;10615;42.702;23.314;2022-11-20T06:23:44;17.30;80.40
20911;DHT22;10615;42.702;23.314;2022-11-20T06:24:45;17.30;80.30
20911;DHT22;10615;42.702;23.314;2022-11-20T06:25:45;17.30;81.20
20911;DHT22;10615;42.702;23.314;2022-11-20T06:26:46;17.30;80.50
20911;DHT22;10615;42.702;23.314;2022-11-20T06:27:47;17.30;80.30
20911;DHT22;10615;42.702;23.314;2022-11-20T06:28:47;17.30;80.20
20911;DHT22;10615;42.702;23.314;2022-11-20T06:29:48;17.30;80.20
20911;DHT22;10615;42.702;23.314;2022-11-20T06:30:49;17.30;80.20